createdAt,value
2022-12-08T00:00:09.177Z,88.25
2022-12-08T00:03:15.460Z,88.62
2022-12-08T00:06:45.017Z,88.55
2022-12-08T00:09:47.471Z,88.62
2022-12-08T00:12:50.572Z,89.18
2022-12-08T00:15:53.326Z,88.49
2022-12-08T00:18:56.772Z,88.41
2022-12-08T00:21:59.812Z,88.86
2022-12-08T00:25:02.765Z,88.69
2022-12-08T00:28:05.795Z,88.46
2022-12-08T00:31:10.236Z,88.10
2022-12-08T00:34:14.763Z,87.94
2022-12-08T00:37:17.672Z,87.82
2022-12-08T00:40:20.153Z,87.75
2022-12-08T00:43:23.089Z,87.82
2022-12-08T00:46:25.620Z,88.25
2022-12-08T00:49:28.738Z,88.00
2022-12-08T00:52:31.309Z,88.56
2022-12-08T00:55:34.920Z,88.19
2022-12-08T00:58:37.371Z,88.31
2022-12-08T01:01:40.374Z,88.83
2022-12-08T01:04:43.221Z,88.38
2022-12-08T01:07:46.403Z,87.63
2022-12-08T01:10:48.861Z,87.89
2022-12-08T01:13:51.758Z,87.67
2022-12-08T01:16:54.270Z,87.60
2022-12-08T01:19:57.239Z,88.01
2022-12-08T01:22:59.688Z,88.20
2022-12-08T01:26:07.216Z,88.32
2022-12-08T01:29:10.409Z,88.49
2022-12-08T01:32:13.292Z,88.34
2022-12-08T01:35:16.055Z,88.82
2022-12-08T01:38:19.611Z,88.66
2022-12-08T01:41:31.280Z,88.80
2022-12-08T01:44:34.298Z,88.63
2022-12-08T01:47:42.666Z,88.84
2022-12-08T01:50:48.392Z,88.94
2022-12-08T01:53:51.309Z,88.99
2022-12-08T01:57:01.443Z,88.67
2022-12-08T02:00:09.130Z,88.93
2022-12-08T02:03:16.635Z,88.87
2022-12-08T02:06:20.250Z,88.67
2022-12-08T02:09:23.236Z,88.88
2022-12-08T02:12:25.796Z,88.54
2022-12-08T02:15:39.334Z,88.47
2022-12-08T02:19:14.718Z,88.52
2022-12-08T02:22:52.120Z,89.26
2022-12-08T02:26:09.583Z,89.36
2022-12-08T02:29:34.003Z,89.54
2022-12-08T02:32:39.773Z,89.09
2022-12-08T02:35:54.648Z,88.98
2022-12-08T02:39:37.261Z,88.90
2022-12-08T02:42:57.047Z,89.44
2022-12-08T02:46:05.289Z,89.35
2022-12-08T02:49:08.259Z,89.76
2022-12-08T02:52:14.321Z,89.37
2022-12-08T02:55:26.215Z,89.62
2022-12-08T02:58:48.207Z,89.14
2022-12-08T03:02:12.301Z,89.28
2022-12-08T03:05:14.802Z,89.03
2022-12-08T03:08:47.030Z,88.83
2022-12-08T03:12:07.797Z,88.93
2022-12-08T03:15:16.362Z,88.58
2022-12-08T03:18:24.008Z,89.01
2022-12-08T03:21:27.386Z,89.58
2022-12-08T03:24:40.769Z,89.65
2022-12-08T03:27:44.054Z,89.59
2022-12-08T03:30:51.034Z,88.76
2022-12-08T03:33:57.160Z,88.36
2022-12-08T03:37:01.530Z,88.28
2022-12-08T03:40:06.859Z,88.70
2022-12-08T03:43:10.009Z,89.44
2022-12-08T03:46:13.067Z,90.05
2022-12-08T03:49:15.620Z,88.96
2022-12-08T03:52:18.527Z,88.74
2022-12-08T03:55:21.621Z,89.86
2022-12-08T03:58:24.703Z,88.19
2022-12-08T04:01:28.256Z,88.07
2022-12-08T04:04:31.571Z,89.32
2022-12-08T04:07:34.176Z,89.30
2022-12-08T04:10:37.131Z,88.65
2022-12-08T04:13:41.098Z,88.28
2022-12-08T04:16:43.923Z,88.85
2022-12-08T04:19:46.420Z,88.68
2022-12-08T04:22:49.649Z,89.16
2022-12-08T04:25:53.240Z,89.13
2022-12-08T04:28:56.055Z,88.22
2022-12-08T04:31:58.910Z,88.88
2022-12-08T04:35:01.809Z,88.64
2022-12-08T04:38:04.666Z,88.45
2022-12-08T04:41:07.751Z,88.70
2022-12-08T04:44:10.232Z,88.64
2022-12-08T04:47:13.544Z,89.55
2022-12-08T04:50:16.451Z,90.24
2022-12-08T04:53:20.289Z,89.25
2022-12-08T04:56:22.992Z,89.82
2022-12-08T04:59:25.642Z,89.33
2022-12-08T05:02:28.592Z,89.96
2022-12-08T05:05:31.315Z,90.19
2022-12-08T05:08:34.043Z,90.71
2022-12-08T05:11:36.975Z,90.50
2022-12-08T05:14:39.516Z,90.42
2022-12-08T05:17:42.731Z,90.38
2022-12-08T05:20:45.252Z,89.59
2022-12-08T05:23:48.297Z,89.02
2022-12-08T05:26:50.777Z,88.71
2022-12-08T05:29:53.596Z,88.15
2022-12-08T05:32:56.074Z,88.02
2022-12-08T05:35:58.864Z,88.43
2022-12-08T05:39:01.426Z,88.73
2022-12-08T05:42:04.237Z,88.74
2022-12-08T05:45:07.338Z,89.04
2022-12-08T05:48:10.191Z,89.13
2022-12-08T05:51:23.921Z,89.03
2022-12-08T05:54:26.971Z,88.74
2022-12-08T05:57:29.532Z,88.77
2022-12-08T06:00:35.020Z,89.24
2022-12-08T06:03:38.216Z,88.96
2022-12-08T06:06:40.912Z,89.23
2022-12-08T06:09:43.694Z,88.39
2022-12-08T06:12:46.437Z,88.61
2022-12-08T06:15:49.408Z,89.03
2022-12-08T06:18:52.424Z,89.26
2022-12-08T06:21:54.953Z,89.16
2022-12-08T06:24:57.684Z,88.91
2022-12-08T06:28:00.400Z,89.03
2022-12-08T06:31:16.001Z,89.25
2022-12-08T06:34:18.801Z,89.91
2022-12-08T06:37:21.482Z,89.74
2022-12-08T06:40:24.228Z,89.21
2022-12-08T06:43:27.795Z,88.24
2022-12-08T06:46:30.385Z,88.14
2022-12-08T06:49:33.311Z,88.14
2022-12-08T06:52:43.007Z,87.03
2022-12-08T06:56:00.350Z,85.14
2022-12-08T06:59:04.257Z,82.11
2022-12-08T07:02:07.505Z,80.93
2022-12-08T07:05:10.743Z,77.68
2022-12-08T07:08:13.379Z,77.69
2022-12-08T07:11:21.112Z,78.09
2022-12-08T07:14:25.023Z,80.36
2022-12-08T07:17:27.900Z,82.34
2022-12-08T07:20:30.639Z,85.23
2022-12-08T07:23:33.351Z,86.28
2022-12-08T07:26:35.989Z,86.48
2022-12-08T07:29:38.827Z,86.27
2022-12-08T07:32:41.346Z,86.90
2022-12-08T07:35:49.103Z,86.94
2022-12-08T07:38:55.596Z,86.53
2022-12-08T07:41:58.584Z,87.05
2022-12-08T07:45:02.561Z,87.12
2022-12-08T07:48:06.536Z,86.67
2022-12-08T07:51:10.643Z,87.30
2022-12-08T07:54:14.015Z,88.17
2022-12-08T07:57:16.473Z,86.91
2022-12-08T08:00:19.923Z,86.29
2022-12-08T08:03:22.513Z,86.20
2022-12-08T08:06:25.796Z,85.86
2022-12-08T08:09:28.456Z,85.23
2022-12-08T08:12:32.640Z,83.83
2022-12-08T08:15:36.165Z,82.67
2022-12-08T08:18:40.220Z,84.93
2022-12-08T08:21:45.891Z,83.74
2022-12-08T08:24:49.179Z,83.87
2022-12-08T08:27:51.880Z,83.61
2022-12-08T08:30:55.313Z,85.63
2022-12-08T08:33:58.021Z,84.12
2022-12-08T08:37:00.878Z,84.39
2022-12-08T08:40:04.111Z,84.19
2022-12-08T08:43:07.551Z,83.55
2022-12-08T08:46:10.269Z,82.32
2022-12-08T08:49:13.264Z,84.29
2022-12-08T08:52:15.776Z,83.19
2022-12-08T08:55:18.847Z,82.68
2022-12-08T08:58:21.444Z,81.95
2022-12-08T09:01:27.790Z,83.61
2022-12-08T09:04:30.497Z,83.92
2022-12-08T09:07:33.803Z,83.33
2022-12-08T09:10:36.554Z,82.72
2022-12-08T09:13:39.417Z,83.73
2022-12-08T09:16:48.566Z,84.24
2022-12-08T09:19:51.295Z,82.88
2022-12-08T09:22:53.890Z,83.98
2022-12-08T09:25:56.790Z,83.58
2022-12-08T09:28:59.481Z,83.02
2022-12-08T09:32:02.220Z,84.03
2022-12-08T09:35:05.205Z,83.44
2022-12-08T09:38:08.032Z,82.88
2022-12-08T09:41:36.474Z,82.19
2022-12-08T09:44:59.871Z,84.04
2022-12-08T09:48:15.279Z,83.41
2022-12-08T09:51:18.067Z,82.32
2022-12-08T09:54:47.115Z,83.09
2022-12-08T09:57:57.803Z,83.53
2022-12-08T10:01:01.028Z,82.41
2022-12-08T10:04:04.789Z,82.52
2022-12-08T10:07:25.797Z,82.77
2022-12-08T10:10:57.369Z,81.58
2022-12-08T10:14:28.047Z,82.39
2022-12-08T10:17:35.841Z,81.69
2022-12-08T10:20:42.225Z,79.60
2022-12-08T10:23:49.591Z,78.83
2022-12-08T10:26:52.273Z,79.55
2022-12-08T10:29:55.115Z,79.25
2022-12-08T10:32:57.815Z,78.12
2022-12-08T10:36:04.724Z,78.73
2022-12-08T10:39:43.909Z,79.66
2022-12-08T10:42:51.399Z,79.26
2022-12-08T10:45:54.544Z,78.28
2022-12-08T10:49:12.399Z,78.97
2022-12-08T10:52:25.297Z,79.47
2022-12-08T10:55:30.223Z,80.06
2022-12-08T10:58:41.025Z,80.35
2022-12-08T11:01:48.862Z,80.82
2022-12-08T11:05:01.779Z,81.96
2022-12-08T11:08:06.115Z,82.94
2022-12-08T11:11:09.035Z,82.13
2022-12-08T11:14:16.881Z,81.34
2022-12-08T11:17:22.357Z,80.34
2022-12-08T11:20:25.379Z,78.57
2022-12-08T11:23:30.004Z,79.16
2022-12-08T11:26:35.467Z,79.62
2022-12-08T11:29:46.391Z,78.55
2022-12-08T11:32:55.157Z,77.71
2022-12-08T11:36:05.876Z,76.51
2022-12-08T11:39:12.550Z,74.96
2022-12-08T11:42:18.660Z,75.49
2022-12-08T11:45:26.959Z,74.33
2022-12-08T11:48:52.666Z,74.78
2022-12-08T11:52:03.172Z,75.68
2022-12-08T11:55:25.934Z,75.82
2022-12-08T11:58:39.075Z,75.17
2022-12-08T12:01:42.830Z,76.25
2022-12-08T12:04:57.653Z,76.60
2022-12-08T12:08:37.790Z,76.52
2022-12-08T12:12:07.212Z,77.07
2022-12-08T12:16:00.004Z,76.83
2022-12-08T12:19:18.044Z,78.43
2022-12-08T12:22:23.383Z,78.89
2022-12-08T12:25:27.063Z,79.48
2022-12-08T12:28:49.909Z,80.45
2022-12-08T12:31:58.368Z,81.23
2022-12-08T12:35:01.463Z,81.48
2022-12-08T12:38:30.893Z,81.75
2022-12-08T12:42:00.064Z,81.53
2022-12-08T12:45:16.435Z,81.81
2022-12-08T12:48:25.309Z,81.00
2022-12-08T12:51:43.347Z,81.13
2022-12-08T12:54:51.929Z,82.09
2022-12-08T12:57:57.401Z,82.11
2022-12-08T13:01:12.653Z,81.89
2022-12-08T13:04:17.078Z,82.45
2022-12-08T13:07:22.680Z,81.94
2022-12-08T13:10:39.621Z,82.38
2022-12-08T13:14:01.338Z,82.28
2022-12-08T13:17:11.577Z,82.95
2022-12-08T13:20:25.852Z,82.59
2022-12-08T13:23:50.573Z,82.05
2022-12-08T13:27:04.965Z,82.18
2022-12-08T13:30:42.551Z,82.02
2022-12-08T13:33:46.966Z,82.03
2022-12-08T13:36:57.715Z,81.99
2022-12-08T13:40:14.429Z,82.01
2022-12-08T13:44:02.494Z,82.23
2022-12-08T13:47:33.263Z,82.74
2022-12-08T13:57:43.093Z,83.77
2022-12-08T14:01:15.165Z,83.76
2022-12-08T14:07:44.135Z,84.48
2022-12-08T14:10:53.331Z,84.78
2022-12-08T14:13:56.024Z,84.87
2022-12-08T14:17:03.645Z,84.72
2022-12-08T14:20:12.383Z,84.13
2022-12-08T14:23:17.438Z,84.34
2022-12-08T14:26:20.123Z,83.69
2022-12-08T14:29:49.934Z,83.97
2022-12-08T14:32:58.898Z,83.26
2022-12-08T14:36:01.820Z,83.50
2022-12-08T14:39:04.452Z,83.38
2022-12-08T14:42:07.828Z,83.49
2022-12-08T14:45:13.668Z,83.69
2022-12-08T14:48:33.726Z,83.82
2022-12-08T14:51:36.942Z,84.31
2022-12-08T14:54:41.093Z,84.08
2022-12-08T14:57:48.684Z,83.74
2022-12-08T15:00:57.004Z,84.04
2022-12-08T15:04:14.061Z,84.89
2022-12-08T15:07:19.947Z,84.46
2022-12-08T15:10:30.887Z,84.69
2022-12-08T15:13:33.777Z,84.65
2022-12-08T15:16:36.527Z,84.76
2022-12-08T15:19:40.316Z,85.40
2022-12-08T15:22:42.716Z,85.08
2022-12-08T15:25:45.944Z,85.91
2022-12-08T15:28:48.479Z,85.68
2022-12-08T15:31:53.505Z,86.43
2022-12-08T15:34:56.145Z,86.47
2022-12-08T15:37:58.868Z,86.02
2022-12-08T15:41:01.690Z,86.38
2022-12-08T15:44:04.306Z,86.59
2022-12-08T15:47:16.779Z,86.97
2022-12-08T15:50:21.799Z,86.30
2022-12-08T15:53:24.496Z,86.80
2022-12-08T15:56:28.641Z,86.82
2022-12-08T15:59:31.915Z,87.27
2022-12-08T16:03:05.018Z,87.17
2022-12-08T16:06:50.866Z,87.55
2022-12-08T16:09:36.951Z,87.55
2022-12-08T16:16:26.836Z,87.81
2022-12-08T16:19:29.581Z,87.79
2022-12-08T16:26:20.385Z,87.85
2022-12-08T16:29:20.806Z,87.78
2022-12-08T16:32:23.679Z,87.96
2022-12-08T16:35:26.522Z,87.69
2022-12-08T16:38:29.135Z,87.72
2022-12-08T16:41:50.116Z,87.75
2022-12-08T16:44:53.007Z,88.10
2022-12-08T16:48:00.782Z,88.54
2022-12-08T16:51:04.577Z,88.44
2022-12-08T16:54:07.487Z,88.46
2022-12-08T16:57:12.064Z,88.26
2022-12-08T17:00:19.371Z,88.51
2022-12-08T17:03:22.020Z,88.72
2022-12-08T17:06:24.740Z,88.82
2022-12-08T17:09:28.601Z,89.26
2022-12-08T17:12:31.960Z,89.34
2022-12-08T17:15:34.903Z,89.45
2022-12-08T17:18:38.445Z,89.24
2022-12-08T17:21:41.799Z,89.12
2022-12-08T17:24:44.541Z,89.10
2022-12-08T17:27:47.497Z,89.05
2022-12-08T17:30:50.290Z,89.03
2022-12-08T17:33:52.931Z,88.92
2022-12-08T17:36:56.514Z,89.32
2022-12-08T17:39:59.653Z,88.98
2022-12-08T17:43:02.343Z,88.99
2022-12-08T17:46:05.653Z,89.25
2022-12-08T17:49:20.441Z,89.08
2022-12-08T17:52:23.074Z,89.13
2022-12-08T17:55:26.149Z,89.13
2022-12-08T17:58:28.736Z,89.06
2022-12-08T18:01:34.660Z,89.21
2022-12-08T18:04:37.273Z,89.09
2022-12-08T18:07:40.192Z,88.97
2022-12-08T18:10:43.167Z,88.91
2022-12-08T18:13:48.299Z,88.54
2022-12-08T18:16:51.174Z,88.57
2022-12-08T18:19:53.978Z,88.73
2022-12-08T18:22:56.637Z,89.12
2022-12-08T18:25:59.685Z,88.89
2022-12-08T18:29:02.166Z,88.55
2022-12-08T18:32:05.081Z,88.48
2022-12-08T18:35:08.682Z,88.53
2022-12-08T18:38:11.395Z,88.74
2022-12-08T18:41:18.819Z,89.09
2022-12-08T18:44:21.759Z,89.00
2022-12-08T18:47:24.761Z,89.16
2022-12-08T18:50:27.775Z,88.95
2022-12-08T18:53:31.636Z,88.59
2022-12-08T18:56:37.060Z,88.94
2022-12-08T18:59:39.934Z,89.07
2022-12-08T19:02:43.275Z,89.99
2022-12-08T19:05:45.944Z,89.61
2022-12-08T19:08:49.147Z,89.31
2022-12-08T19:11:52.353Z,89.20
2022-12-08T19:14:55.227Z,89.39
2022-12-08T19:17:58.396Z,89.62
2022-12-08T19:21:01.320Z,90.17
2022-12-08T19:24:04.685Z,90.03
2022-12-08T19:27:07.775Z,89.51
2022-12-08T19:30:11.008Z,89.85
2022-12-08T19:33:14.091Z,89.78
2022-12-08T19:36:19.140Z,89.71
2022-12-08T19:39:41.882Z,90.02
2022-12-08T19:43:04.273Z,90.03
2022-12-08T19:46:08.792Z,90.17
2022-12-08T19:49:11.805Z,89.77
2022-12-08T19:52:15.152Z,89.52
2022-12-08T19:55:17.942Z,89.93
2022-12-08T19:58:20.932Z,89.75
2022-12-08T20:01:23.809Z,89.44
2022-12-08T20:04:27.714Z,89.64
2022-12-08T20:07:30.567Z,89.66
2022-12-08T20:10:36.968Z,89.27
2022-12-08T20:13:44.693Z,89.60
2022-12-08T20:16:47.732Z,89.84
2022-12-08T20:19:51.010Z,89.78
2022-12-08T20:22:54.360Z,90.00
2022-12-08T20:25:57.895Z,90.07
2022-12-08T20:29:00.970Z,89.83
2022-12-08T20:32:04.067Z,89.86
2022-12-08T20:35:07.592Z,89.60
2022-12-08T20:38:11.230Z,89.65
2022-12-08T20:41:16.183Z,89.69
2022-12-08T20:44:19.188Z,89.55
2022-12-08T20:47:22.183Z,89.62
2022-12-08T20:50:25.545Z,89.40
2022-12-08T20:53:28.751Z,89.07
2022-12-08T20:56:32.762Z,88.93
2022-12-08T20:59:36.306Z,88.89
2022-12-08T21:02:45.087Z,88.53
2022-12-08T21:05:52.120Z,88.92
2022-12-08T21:08:55.008Z,88.81
2022-12-08T21:11:58.051Z,88.94
2022-12-08T21:15:01.007Z,88.88
2022-12-08T21:18:05.284Z,88.59
2022-12-08T21:21:12.273Z,88.83
2022-12-08T21:24:15.888Z,89.06
2022-12-08T21:27:18.751Z,88.90
2022-12-08T21:30:23.004Z,88.78
2022-12-08T21:33:25.555Z,88.95
2022-12-08T21:36:28.719Z,88.85
2022-12-08T21:39:32.739Z,88.88
2022-12-08T21:42:45.506Z,88.26
2022-12-08T21:45:48.190Z,88.51
2022-12-08T21:48:51.186Z,88.51
2022-12-08T21:51:54.069Z,88.69
2022-12-08T21:54:57.176Z,88.20
2022-12-08T21:58:01.008Z,88.11
2022-12-08T22:01:08.471Z,88.16
2022-12-08T22:04:12.557Z,88.41
2022-12-08T22:07:15.984Z,88.18
2022-12-08T22:10:21.064Z,88.53
2022-12-08T22:13:23.948Z,89.04
2022-12-08T22:16:26.589Z,88.46
2022-12-08T22:19:31.270Z,88.19
2022-12-08T22:22:34.939Z,88.78
2022-12-08T22:25:37.997Z,88.70
2022-12-08T22:28:42.574Z,88.98
2022-12-08T22:31:45.415Z,89.68
2022-12-08T22:34:47.838Z,90.57
2022-12-08T22:37:50.547Z,90.07
2022-12-08T22:40:53.371Z,90.86
2022-12-08T22:43:56.212Z,90.35
2022-12-08T22:46:58.859Z,90.10
2022-12-08T22:50:02.620Z,90.08
2022-12-08T22:53:05.410Z,90.06
2022-12-08T22:56:10.477Z,89.99
2022-12-08T22:59:13.169Z,89.82
2022-12-08T23:02:16.740Z,90.19
2022-12-08T23:05:19.582Z,90.11
2022-12-08T23:08:22.657Z,90.31
2022-12-08T23:11:28.981Z,90.45
2022-12-08T23:14:31.924Z,90.28
2022-12-08T23:17:34.854Z,90.48
2022-12-08T23:20:37.809Z,90.13
2022-12-08T23:23:41.077Z,89.80
2022-12-08T23:26:43.853Z,90.11
2022-12-08T23:29:46.708Z,90.42
2022-12-08T23:32:49.304Z,90.31
2022-12-08T23:35:58.281Z,90.58
2022-12-08T23:39:00.987Z,90.51
2022-12-08T23:42:03.801Z,90.71
2022-12-08T23:45:08.931Z,91.00
2022-12-08T23:48:11.729Z,90.70
2022-12-08T23:51:14.559Z,90.08
2022-12-08T23:54:17.489Z,90.56
2022-12-08T23:57:20.760Z,90.55
